createdAt,value
2024-04-24T00:01:44.654Z,100.00
2024-04-24T00:04:12.171Z,100.00
2024-04-24T00:06:39.710Z,100.00
2024-04-24T00:09:07.137Z,100.00
2024-04-24T00:11:34.503Z,100.00
2024-04-24T00:14:01.981Z,100.00
2024-04-24T00:16:29.482Z,100.00
2024-04-24T00:18:56.820Z,100.00
2024-04-24T00:21:24.167Z,100.00
2024-04-24T00:23:51.573Z,100.00
2024-04-24T00:26:19.054Z,100.00
2024-04-24T00:28:46.489Z,100.00
2024-04-24T00:31:13.995Z,100.00
2024-04-24T00:33:41.445Z,100.00
2024-04-24T00:36:08.813Z,100.00
2024-04-24T00:38:36.291Z,100.00
2024-04-24T00:41:04.000Z,100.00
2024-04-24T00:43:31.394Z,100.00
2024-04-24T00:45:59.999Z,100.00
2024-04-24T00:48:28.406Z,100.00
2024-04-24T00:50:56.513Z,100.00
2024-04-24T00:53:24.073Z,100.00
2024-04-24T00:55:51.570Z,100.00
2024-04-24T00:58:20.953Z,100.00
2024-04-24T01:00:48.658Z,100.00
2024-04-24T01:03:16.586Z,100.00
2024-04-24T01:05:44.045Z,100.00
2024-04-24T01:08:11.491Z,100.00
2024-04-24T01:10:39.352Z,100.00
2024-04-24T01:13:06.789Z,100.00
2024-04-24T01:15:38.236Z,100.00
2024-04-24T01:18:06.783Z,100.00
2024-04-24T01:20:34.643Z,100.00
2024-04-24T01:23:20.561Z,100.00
2024-04-24T01:25:57.655Z,100.00
2024-04-24T01:28:27.590Z,100.00
2024-04-24T01:30:54.786Z,100.00
2024-04-24T01:33:22.264Z,100.00
2024-04-24T01:35:50.053Z,100.00
2024-04-24T01:38:17.433Z,100.00
2024-04-24T01:40:45.012Z,100.00
2024-04-24T01:43:14.046Z,100.00
2024-04-24T01:45:42.170Z,100.00
2024-04-24T01:48:09.811Z,100.00
2024-04-24T01:50:37.325Z,100.00
2024-04-24T01:53:05.709Z,100.00
2024-04-24T01:55:33.202Z,100.00
2024-04-24T01:58:00.464Z,100.00
2024-04-24T02:00:27.935Z,100.00
2024-04-24T02:02:55.486Z,100.00
2024-04-24T02:05:23.011Z,100.00
2024-04-24T02:07:50.676Z,100.00
2024-04-24T02:10:18.111Z,100.00
2024-04-24T02:12:45.636Z,100.00
2024-04-24T02:15:13.068Z,100.00
2024-04-24T02:17:40.808Z,100.00
2024-04-24T02:20:08.771Z,100.00
2024-04-24T02:22:37.933Z,100.00
2024-04-24T02:25:25.380Z,100.00
2024-04-24T02:27:53.148Z,100.00
2024-04-24T02:30:20.583Z,100.00
2024-04-24T02:32:48.316Z,100.00
2024-04-24T02:35:16.265Z,100.00
2024-04-24T02:37:43.772Z,100.00
2024-04-24T02:40:11.239Z,100.00
2024-04-24T02:42:38.734Z,100.00
2024-04-24T02:45:06.767Z,100.00
2024-04-24T02:47:34.771Z,100.00
2024-04-24T02:50:02.317Z,100.00
2024-04-24T02:52:29.760Z,100.00
2024-04-24T02:54:57.143Z,100.00
2024-04-24T02:57:24.403Z,100.00
2024-04-24T02:59:51.841Z,100.00
2024-04-24T03:02:19.483Z,100.00
2024-04-24T03:04:47.003Z,100.00
2024-04-24T03:07:14.459Z,100.00
2024-04-24T03:09:41.814Z,100.00
2024-04-24T03:12:09.225Z,100.00
2024-04-24T03:14:36.621Z,100.00
2024-04-24T03:17:04.311Z,100.00
2024-04-24T03:19:31.787Z,100.00
2024-04-24T03:21:59.239Z,100.00
2024-04-24T03:24:26.841Z,100.00
2024-04-24T03:26:54.135Z,100.00
2024-04-24T03:29:21.919Z,100.00
2024-04-24T03:31:49.782Z,100.00
2024-04-24T03:34:17.255Z,100.00
2024-04-24T03:36:44.786Z,100.00
2024-04-24T03:39:12.160Z,100.00
2024-04-24T03:41:39.480Z,100.00
2024-04-24T03:44:07.272Z,100.00
2024-04-24T03:46:34.750Z,100.00
2024-04-24T03:49:02.132Z,100.00
2024-04-24T03:51:29.624Z,100.00
2024-04-24T03:53:57.101Z,100.00
2024-04-24T03:56:24.436Z,100.00
2024-04-24T03:58:51.937Z,100.00
2024-04-24T04:01:19.336Z,100.00
2024-04-24T04:03:46.693Z,100.00
2024-04-24T04:06:14.146Z,100.00
2024-04-24T04:08:41.462Z,100.00
2024-04-24T04:11:09.423Z,100.00
2024-04-24T04:13:36.857Z,100.00
2024-04-24T04:16:04.423Z,100.00
2024-04-24T04:18:33.800Z,100.00
2024-04-24T04:21:01.287Z,100.00
2024-04-24T04:23:28.845Z,100.00
2024-04-24T04:25:56.254Z,100.00
2024-04-24T04:28:24.744Z,100.00
2024-04-24T04:30:52.531Z,100.00
2024-04-24T04:33:20.037Z,100.00
2024-04-24T04:35:47.445Z,100.00
2024-04-24T04:38:14.856Z,100.00
2024-04-24T04:40:43.283Z,100.00
2024-04-24T04:43:10.596Z,100.00
2024-04-24T04:45:38.068Z,100.00
2024-04-24T04:48:08.865Z,100.00
2024-04-24T04:50:36.400Z,100.00
2024-04-24T04:53:03.921Z,100.00
2024-04-24T04:55:31.787Z,100.00
2024-04-24T04:58:02.790Z,100.00
2024-04-24T05:00:31.043Z,100.00
2024-04-24T05:02:58.528Z,100.00
2024-04-24T05:05:26.486Z,100.00
2024-04-24T05:07:54.084Z,100.00
2024-04-24T05:10:21.494Z,100.00
2024-04-24T05:12:49.073Z,100.00
2024-04-24T05:15:16.788Z,100.00
2024-04-24T05:17:44.397Z,100.00
2024-04-24T05:20:11.911Z,100.00
2024-04-24T05:22:48.464Z,100.00
2024-04-24T05:25:17.777Z,100.00
2024-04-24T05:28:04.049Z,100.00
2024-04-24T05:30:32.087Z,100.00
2024-04-24T05:32:59.627Z,100.00
2024-04-24T05:35:27.264Z,100.00
2024-04-24T05:37:54.851Z,100.00
2024-04-24T05:40:22.268Z,100.00
2024-04-24T05:42:49.791Z,100.00
2024-04-24T05:45:17.269Z,100.00
2024-04-24T05:47:44.943Z,100.00
2024-04-24T05:50:12.590Z,100.00
2024-04-24T05:52:40.254Z,100.00
2024-04-24T05:55:07.704Z,100.00
2024-04-24T05:57:35.167Z,100.00
2024-04-24T06:00:02.709Z,100.00
2024-04-24T06:02:36.420Z,100.00
2024-04-24T06:05:04.486Z,100.00
2024-04-24T06:07:32.305Z,100.00
2024-04-24T06:09:59.722Z,100.00
2024-04-24T06:12:27.277Z,100.00
2024-04-24T06:14:54.765Z,100.00
2024-04-24T06:17:22.327Z,100.00
2024-04-24T06:19:49.807Z,100.00
2024-04-24T06:22:17.270Z,100.00
2024-04-24T06:24:44.885Z,100.00
2024-04-24T06:27:12.621Z,100.00
2024-04-24T06:29:41.749Z,100.00
2024-04-24T06:32:09.507Z,100.00
2024-04-24T06:34:37.093Z,100.00
2024-04-24T06:37:04.539Z,100.00
2024-04-24T06:39:31.995Z,100.00
2024-04-24T06:41:59.410Z,100.00
2024-04-24T06:44:27.161Z,100.00
2024-04-24T06:46:54.936Z,100.00
2024-04-24T06:49:22.465Z,100.00
2024-04-24T06:51:49.901Z,100.00
2024-04-24T06:54:17.331Z,100.00
2024-04-24T06:56:44.794Z,100.00
2024-04-24T06:59:12.223Z,100.00
2024-04-24T07:01:39.967Z,100.00
2024-04-24T07:04:07.435Z,100.00
2024-04-24T07:06:34.857Z,100.00
2024-04-24T07:09:02.432Z,100.00
2024-04-24T07:11:30.239Z,100.00
2024-04-24T07:13:57.672Z,100.00
2024-04-24T07:16:25.077Z,100.00
2024-04-24T07:18:52.694Z,100.00
2024-04-24T07:21:20.180Z,100.00
2024-04-24T07:23:47.589Z,100.00
2024-04-24T07:26:15.058Z,100.00
2024-04-24T07:28:42.583Z,100.00
2024-04-24T07:31:09.985Z,100.00
2024-04-24T07:33:37.452Z,100.00
2024-04-24T07:36:08.335Z,100.00
2024-04-24T07:38:36.489Z,100.00
2024-04-24T07:41:07.050Z,100.00
2024-04-24T07:43:34.778Z,100.00
2024-04-24T07:46:02.701Z,100.00
2024-04-24T07:48:30.669Z,100.00
2024-04-24T07:50:58.284Z,100.00
2024-04-24T07:53:25.788Z,100.00
2024-04-24T07:55:53.265Z,100.00
2024-04-24T07:58:20.739Z,100.00
2024-04-24T08:00:48.385Z,100.00
2024-04-24T08:03:15.973Z,100.00
2024-04-24T08:05:43.714Z,100.00
2024-04-24T08:08:11.266Z,100.00
2024-04-24T08:10:38.729Z,100.00
2024-04-24T08:13:06.290Z,100.00
2024-04-24T08:15:34.083Z,100.00
2024-04-24T08:18:01.637Z,100.00
2024-04-24T08:20:29.279Z,100.00
2024-04-24T08:22:56.859Z,100.00
2024-04-24T08:25:24.254Z,100.00
2024-04-24T08:27:52.274Z,100.00
2024-04-24T08:30:19.788Z,100.00
2024-04-24T08:32:47.423Z,100.00
2024-04-24T08:35:15.056Z,100.00
2024-04-24T08:37:42.490Z,100.00
2024-04-24T08:40:10.389Z,100.00
2024-04-24T08:42:38.758Z,100.00
2024-04-24T08:45:06.947Z,100.00
2024-04-24T08:47:35.849Z,100.00
2024-04-24T08:50:03.636Z,100.00
2024-04-24T08:52:34.746Z,100.00
2024-04-24T08:55:04.696Z,100.00
2024-04-24T08:57:34.173Z,100.00
2024-04-24T09:00:04.182Z,100.00
2024-04-24T09:02:38.223Z,100.00
2024-04-24T09:05:08.111Z,100.00
2024-04-24T09:07:37.312Z,100.00
2024-04-24T09:10:05.018Z,100.00
2024-04-24T09:12:34.165Z,100.00
2024-04-24T09:15:01.837Z,100.00
2024-04-24T09:17:29.503Z,100.00
2024-04-24T09:19:56.949Z,100.00
2024-04-24T09:22:25.551Z,100.00
2024-04-24T09:24:57.742Z,100.00
2024-04-24T09:27:26.075Z,100.00
2024-04-24T09:29:53.535Z,100.00
2024-04-24T09:32:21.443Z,100.00
2024-04-24T09:34:49.365Z,100.00
2024-04-24T09:37:19.810Z,100.00
2024-04-24T09:39:48.783Z,100.00
2024-04-24T09:42:16.300Z,100.00
2024-04-24T09:44:45.421Z,100.00
2024-04-24T09:47:13.125Z,100.00
2024-04-24T09:49:43.586Z,100.00
2024-04-24T09:52:17.400Z,100.00
2024-04-24T09:54:46.495Z,100.00
2024-04-24T09:57:19.101Z,100.00
2024-04-24T09:59:58.299Z,100.00
2024-04-24T10:02:30.519Z,100.00
2024-04-24T10:05:15.910Z,100.00
2024-04-24T10:07:50.052Z,100.00
2024-04-24T10:10:20.086Z,100.00
2024-04-24T10:12:49.298Z,100.00
2024-04-24T10:15:24.395Z,100.00
2024-04-24T10:17:55.084Z,100.00
2024-04-24T10:20:26.202Z,100.00
2024-04-24T10:22:55.213Z,100.00
2024-04-24T10:25:23.477Z,100.00
2024-04-24T10:27:52.832Z,100.00
2024-04-24T10:30:25.342Z,100.00
2024-04-24T10:32:53.498Z,100.00
2024-04-24T10:35:22.758Z,100.00
2024-04-24T10:37:59.785Z,100.00
2024-04-24T10:40:31.413Z,100.00
2024-04-24T10:43:06.049Z,100.00
2024-04-24T10:45:41.725Z,100.00
2024-04-24T10:48:14.347Z,100.00
2024-04-24T10:50:42.947Z,100.00
2024-04-24T10:53:14.738Z,100.00
2024-04-24T10:55:59.582Z,100.00
2024-04-24T10:58:27.270Z,100.00
2024-04-24T11:00:54.793Z,100.00
2024-04-24T11:03:26.293Z,100.00
2024-04-24T11:05:54.090Z,100.00
2024-04-24T11:08:21.820Z,100.00
2024-04-24T11:10:52.962Z,100.00
2024-04-24T11:13:20.572Z,100.00
2024-04-24T11:15:54.798Z,100.00
2024-04-24T11:18:29.668Z,100.00
2024-04-24T11:20:57.564Z,100.00
2024-04-24T11:23:25.320Z,100.00
2024-04-24T11:25:59.284Z,100.00
2024-04-24T11:28:28.141Z,100.00
2024-04-24T11:30:56.309Z,100.00
2024-04-24T11:33:24.579Z,100.00
2024-04-24T11:35:53.280Z,100.00
2024-04-24T11:38:21.050Z,100.00
2024-04-24T11:40:49.043Z,100.00
2024-04-24T11:43:16.684Z,100.00
2024-04-24T11:45:44.385Z,100.00
2024-04-24T11:48:12.018Z,100.00
2024-04-24T11:50:39.699Z,100.00
2024-04-24T11:53:09.859Z,100.00
2024-04-24T11:55:37.520Z,100.00
2024-04-24T11:58:14.548Z,100.00
2024-04-24T12:00:42.270Z,100.00
2024-04-24T12:03:10.282Z,100.00
2024-04-24T12:05:37.891Z,100.00
2024-04-24T12:08:05.769Z,100.00
2024-04-24T12:10:33.284Z,100.00
2024-04-24T12:13:00.823Z,100.00
2024-04-24T12:15:28.310Z,100.00
2024-04-24T12:17:55.960Z,100.00
2024-04-24T12:20:23.489Z,100.00
2024-04-24T12:22:52.572Z,100.00
2024-04-24T12:25:20.114Z,100.00
2024-04-24T12:27:47.568Z,100.00
2024-04-24T12:30:15.004Z,100.00
2024-04-24T12:32:42.819Z,100.00
2024-04-24T12:35:10.431Z,100.00
2024-04-24T12:37:37.935Z,100.00
2024-04-24T12:40:07.161Z,100.00
2024-04-24T12:42:36.206Z,100.00
2024-04-24T12:45:05.219Z,100.00
2024-04-24T12:47:33.103Z,100.00
2024-04-24T12:50:00.637Z,99.39
2024-04-24T12:52:28.020Z,96.86
2024-04-24T12:54:55.669Z,96.15
2024-04-24T12:57:23.711Z,94.01
2024-04-24T12:59:51.192Z,92.41
2024-04-24T13:02:18.685Z,92.45
2024-04-24T13:04:49.201Z,91.43
2024-04-24T13:07:16.798Z,91.64
2024-04-24T13:09:44.145Z,90.48
2024-04-24T13:12:11.575Z,90.39
2024-04-24T13:14:39.015Z,90.63
2024-04-24T13:17:06.688Z,88.69
2024-04-24T13:19:34.398Z,88.43
2024-04-24T13:22:02.143Z,87.43
2024-04-24T13:24:29.601Z,82.73
2024-04-24T13:26:57.451Z,83.12
2024-04-24T13:29:26.463Z,81.65
2024-04-24T13:31:53.980Z,80.02
2024-04-24T13:34:21.378Z,77.58
2024-04-24T13:36:48.932Z,76.35
2024-04-24T13:39:16.328Z,75.13
2024-04-24T13:41:44.146Z,73.97
2024-04-24T13:44:15.851Z,72.08
2024-04-24T13:46:46.628Z,71.86
2024-04-24T13:49:14.121Z,71.30
2024-04-24T13:51:41.619Z,69.71
2024-04-24T13:54:09.538Z,70.46
2024-04-24T13:56:37.104Z,71.20
2024-04-24T13:59:04.664Z,70.13
2024-04-24T14:01:32.090Z,68.48
2024-04-24T14:03:59.890Z,69.70
2024-04-24T14:06:30.213Z,67.63
2024-04-24T14:08:58.070Z,65.86
2024-04-24T14:11:26.307Z,66.25
2024-04-24T14:13:53.797Z,65.58
2024-04-24T14:16:21.217Z,64.61
2024-04-24T14:18:48.704Z,63.91
2024-04-24T14:21:18.039Z,63.54
2024-04-24T14:23:46.405Z,64.09
2024-04-24T14:26:14.979Z,63.88
2024-04-24T14:28:42.970Z,65.07
2024-04-24T14:31:10.366Z,65.49
2024-04-24T14:33:37.979Z,66.05
2024-04-24T14:36:05.859Z,65.52
2024-04-24T14:38:33.436Z,65.74
2024-04-24T14:41:03.534Z,66.12
2024-04-24T14:43:32.505Z,64.30
2024-04-24T14:45:59.856Z,64.45
2024-04-24T14:48:27.608Z,64.30
2024-04-24T14:50:58.377Z,64.04
2024-04-24T14:53:28.980Z,64.28
2024-04-24T14:55:56.803Z,64.45
2024-04-24T14:58:24.403Z,64.03
2024-04-24T15:00:52.116Z,63.78
2024-04-24T15:03:20.195Z,64.43
2024-04-24T15:05:47.629Z,64.91
2024-04-24T15:08:16.252Z,66.25
2024-04-24T15:10:45.065Z,65.67
2024-04-24T15:13:12.593Z,65.41
2024-04-24T15:15:44.731Z,65.67
2024-04-24T15:18:12.432Z,65.46
2024-04-24T15:20:42.087Z,66.45
2024-04-24T15:25:36.641Z,67.33
2024-04-24T15:28:04.513Z,68.20
2024-04-24T15:30:31.876Z,68.50
2024-04-24T15:32:59.538Z,69.35
2024-04-24T15:35:27.295Z,69.36
2024-04-24T15:37:54.685Z,69.21
2024-04-24T15:40:22.445Z,70.24
2024-04-24T15:42:49.841Z,70.81
2024-04-24T15:45:18.671Z,70.74
2024-04-24T15:47:46.190Z,71.42
2024-04-24T15:50:13.890Z,72.62
2024-04-24T15:52:41.526Z,72.91
2024-04-24T15:55:08.942Z,74.09
2024-04-24T15:57:37.222Z,75.38
2024-04-24T16:00:08.194Z,75.78
2024-04-24T16:02:44.371Z,76.18
2024-04-24T16:05:14.469Z,77.20
2024-04-24T16:07:41.979Z,78.47
2024-04-24T16:10:09.313Z,78.72
2024-04-24T16:12:37.071Z,78.97
2024-04-24T16:15:04.976Z,79.54
2024-04-24T16:17:33.330Z,80.71
2024-04-24T16:20:00.976Z,81.20
2024-04-24T16:22:28.430Z,81.88
2024-04-24T16:24:55.881Z,82.11
2024-04-24T16:27:23.357Z,82.54
2024-04-24T16:29:51.806Z,83.28
2024-04-24T16:32:19.288Z,84.28
2024-04-24T16:34:47.183Z,85.17
2024-04-24T16:37:15.145Z,85.97
2024-04-24T16:39:42.837Z,86.23
2024-04-24T16:42:10.542Z,86.41
2024-04-24T16:44:38.015Z,86.47
2024-04-24T16:47:05.619Z,86.67
2024-04-24T16:49:33.751Z,87.58
2024-04-24T16:52:01.681Z,88.72
2024-04-24T16:54:29.075Z,89.17
2024-04-24T16:56:56.454Z,89.81
2024-04-24T16:59:26.980Z,89.54
2024-04-24T17:01:54.580Z,89.90
2024-04-24T17:04:22.720Z,90.19
2024-04-24T17:06:50.223Z,90.59
2024-04-24T17:09:18.325Z,90.93
2024-04-24T17:11:46.116Z,90.63
2024-04-24T17:14:13.790Z,90.51
2024-04-24T17:16:41.391Z,90.47
2024-04-24T17:19:08.972Z,91.28
2024-04-24T17:21:36.535Z,91.86
2024-04-24T17:24:04.830Z,91.05
2024-04-24T17:26:37.012Z,91.82
2024-04-24T17:29:06.866Z,91.35
2024-04-24T17:31:34.350Z,91.24
2024-04-24T17:34:01.731Z,91.78
2024-04-24T17:36:30.575Z,92.28
2024-04-24T17:38:58.260Z,92.52
2024-04-24T17:41:25.756Z,93.00
2024-04-24T17:43:53.370Z,94.04
2024-04-24T17:46:20.727Z,94.90
2024-04-24T17:48:48.194Z,95.86
2024-04-24T17:51:15.671Z,95.78
2024-04-24T17:53:43.297Z,96.79
2024-04-24T17:56:10.656Z,98.85
2024-04-24T17:58:38.169Z,98.41
2024-04-24T18:01:06.298Z,99.06
2024-04-24T18:03:33.696Z,98.94
2024-04-24T18:06:01.030Z,100.00
2024-04-24T18:08:28.491Z,100.00
2024-04-24T18:10:55.912Z,100.00
2024-04-24T18:13:23.276Z,100.00
2024-04-24T18:15:52.321Z,100.00
2024-04-24T18:18:20.902Z,100.00
2024-04-24T18:20:48.544Z,100.00
2024-04-24T18:23:16.618Z,100.00
2024-04-24T18:25:44.169Z,100.00
2024-04-24T18:28:13.276Z,100.00
2024-04-24T18:30:40.695Z,100.00
2024-04-24T18:33:09.226Z,100.00
2024-04-24T18:35:36.928Z,100.00
2024-04-24T18:38:04.675Z,100.00
2024-04-24T18:40:32.222Z,100.00
2024-04-24T18:42:59.862Z,100.00
2024-04-24T18:45:27.355Z,100.00
2024-04-24T18:47:56.333Z,100.00
2024-04-24T18:50:24.018Z,100.00
2024-04-24T18:52:52.029Z,100.00
2024-04-24T18:55:20.624Z,100.00
2024-04-24T18:57:48.120Z,100.00
2024-04-24T19:00:20.022Z,100.00
2024-04-24T19:02:49.695Z,100.00
2024-04-24T19:05:17.376Z,100.00
2024-04-24T19:07:45.333Z,100.00
2024-04-24T19:10:12.871Z,100.00
2024-04-24T19:12:40.443Z,100.00
2024-04-24T19:15:08.343Z,100.00
2024-04-24T19:17:36.074Z,100.00
2024-04-24T19:20:04.656Z,100.00
2024-04-24T19:22:32.202Z,100.00
2024-04-24T19:24:59.917Z,100.00
2024-04-24T19:27:34.946Z,100.00
2024-04-24T19:30:10.317Z,100.00
2024-04-24T19:32:39.860Z,100.00
2024-04-24T19:35:07.648Z,100.00
2024-04-24T19:37:35.449Z,100.00
2024-04-24T19:40:02.987Z,100.00
2024-04-24T19:42:31.448Z,100.00
2024-04-24T19:45:00.772Z,100.00
2024-04-24T19:47:28.872Z,100.00
2024-04-24T19:49:56.310Z,100.00
2024-04-24T19:52:23.649Z,100.00
2024-04-24T19:54:51.061Z,100.00
2024-04-24T19:57:18.410Z,100.00
2024-04-24T19:59:45.804Z,100.00
2024-04-24T20:02:16.095Z,100.00
2024-04-24T20:04:45.456Z,100.00
2024-04-24T20:07:14.757Z,100.00
2024-04-24T20:09:42.171Z,100.00
2024-04-24T20:12:09.821Z,100.00
2024-04-24T20:14:37.600Z,100.00
2024-04-24T20:17:05.145Z,100.00
2024-04-24T20:19:34.205Z,100.00
2024-04-24T20:22:02.270Z,100.00
2024-04-24T20:24:30.041Z,100.00
2024-04-24T20:26:57.447Z,100.00
2024-04-24T20:29:24.876Z,100.00
2024-04-24T20:31:52.471Z,100.00
2024-04-24T20:34:19.867Z,100.00
2024-04-24T20:36:47.306Z,100.00
2024-04-24T20:39:15.215Z,100.00
2024-04-24T20:41:43.379Z,100.00
2024-04-24T20:44:10.814Z,100.00
2024-04-24T20:46:42.380Z,100.00
2024-04-24T20:49:12.618Z,100.00
2024-04-24T20:51:41.261Z,100.00
2024-04-24T20:54:10.548Z,100.00
2024-04-24T20:56:38.828Z,100.00
2024-04-24T20:59:07.679Z,100.00
2024-04-24T21:01:35.188Z,100.00
2024-04-24T21:04:02.722Z,100.00
2024-04-24T21:06:31.886Z,100.00
2024-04-24T21:08:59.311Z,100.00
2024-04-24T21:11:27.018Z,100.00
2024-04-24T21:13:57.938Z,100.00
2024-04-24T21:16:25.930Z,100.00
2024-04-24T21:18:53.706Z,100.00
2024-04-24T21:21:21.606Z,100.00
2024-04-24T21:23:51.882Z,100.00
2024-04-24T21:26:19.535Z,100.00
2024-04-24T21:28:46.921Z,100.00
2024-04-24T21:31:14.596Z,100.00
2024-04-24T21:33:42.225Z,100.00
2024-04-24T21:36:09.596Z,100.00
2024-04-24T21:38:37.035Z,100.00
2024-04-24T21:41:16.678Z,100.00
2024-04-24T21:43:44.156Z,100.00
2024-04-24T21:46:11.662Z,100.00
2024-04-24T21:48:39.130Z,100.00
2024-04-24T21:51:06.543Z,100.00
2024-04-24T21:53:34.598Z,100.00
2024-04-24T21:56:02.350Z,100.00
2024-04-24T21:58:30.074Z,100.00
2024-04-24T22:00:57.822Z,100.00
2024-04-24T22:03:25.262Z,100.00
2024-04-24T22:05:52.722Z,100.00
2024-04-24T22:08:20.197Z,100.00
2024-04-24T22:10:47.708Z,100.00
2024-04-24T22:13:15.061Z,100.00
2024-04-24T22:15:42.533Z,100.00
2024-04-24T22:18:14.006Z,100.00
2024-04-24T22:20:42.055Z,100.00
2024-04-24T22:23:09.401Z,100.00
2024-04-24T22:25:36.806Z,100.00
2024-04-24T22:28:04.430Z,100.00
2024-04-24T22:30:32.066Z,100.00
2024-04-24T22:32:59.459Z,100.00
2024-04-24T22:35:26.989Z,100.00
2024-04-24T22:37:54.301Z,100.00
2024-04-24T22:40:21.775Z,100.00
2024-04-24T22:42:49.168Z,100.00
2024-04-24T22:45:16.479Z,100.00
2024-04-24T22:47:44.771Z,100.00
2024-04-24T22:50:12.428Z,100.00
2024-04-24T22:52:39.962Z,100.00
2024-04-24T22:55:07.407Z,100.00
2024-04-24T22:57:34.882Z,100.00
2024-04-24T23:00:02.736Z,100.00
2024-04-24T23:02:30.439Z,100.00
2024-04-24T23:04:57.832Z,100.00
2024-04-24T23:07:25.106Z,100.00
2024-04-24T23:09:52.925Z,100.00
2024-04-24T23:12:20.460Z,100.00
2024-04-24T23:14:47.811Z,100.00
2024-04-24T23:17:15.377Z,100.00
2024-04-24T23:19:42.894Z,100.00
2024-04-24T23:22:10.257Z,100.00
2024-04-24T23:24:37.682Z,100.00
2024-04-24T23:27:05.189Z,100.00
2024-04-24T23:29:34.798Z,100.00
2024-04-24T23:32:02.685Z,100.00
2024-04-24T23:34:30.298Z,100.00
2024-04-24T23:36:57.685Z,100.00
2024-04-24T23:39:25.122Z,100.00
2024-04-24T23:41:52.594Z,100.00
2024-04-24T23:44:20.163Z,100.00
2024-04-24T23:46:48.876Z,100.00
2024-04-24T23:49:16.692Z,100.00
2024-04-24T23:51:44.111Z,100.00
2024-04-24T23:54:11.684Z,100.00
2024-04-24T23:56:40.481Z,100.00
2024-04-24T23:59:08.207Z,100.00
